Time;durP1;ratioP1;P1;durP2;ratioP2;P2;SDS_P1;SDS_P2;PMS_P1;PMS_P2;Temp;Humidity;BMP_temperature;BMP_pressure;BME280_temperature;BME280_humidity;BME280_pressure;Samples;Min_cycle;Max_cycle;Signal;HPM_P1;HPM_P2
2021/09/10 00:00:22;;;;;;;12.30;7.90;;;;;;;13.34;58.04;101012.17;117465;1185;23435;-62
2021/09/10 00:02:56;;;;;;;13.50;7.20;;;;;;;13.31;57.98;101012.55;117410;1185;23457;-54
2021/09/10 00:05:24;;;;;;;14.20;7.60;;;;;;;13.29;57.93;101013.11;117408;1185;23451;-55
2021/09/10 00:07:52;;;;;;;14.80;7.40;;;;;;;13.25;58.00;101014.05;117391;1186;21843;-55
2021/09/10 00:10:21;;;;;;;13.50;7.70;;;;;;;13.23;58.02;101014.26;117456;1185;23435;-55
2021/09/10 00:12:50;;;;;;;15.50;7.90;;;;;;;13.21;58.00;101012.34;117458;1186;23074;-53
2021/09/10 00:15:31;;;;;;;14.80;8.20;;;;;;;13.18;57.90;101013.80;117393;1186;23464;-64
2021/09/10 00:17:59;;;;;;;13.90;8.30;;;;;;;13.16;58.07;101010.13;117392;1185;21855;-65
2021/09/10 00:20:47;;;;;;;14.20;8.10;;;;;;;13.11;57.97;101009.83;117447;1181;22932;-55
2021/09/10 00:23:15;;;;;;;14.30;8.00;;;;;;;13.09;57.94;101012.49;117476;1185;23429;-55
2021/09/10 00:25:54;;;;;;;14.30;7.90;;;;;;;13.11;58.18;101015.11;117383;1183;23468;-64
2021/09/10 00:28:25;;;;;;;14.20;7.10;;;;;;;13.13;58.09;101014.91;117464;1185;21857;-54
2021/09/10 00:30:53;;;;;;;13.40;7.30;;;;;;;13.09;58.08;101013.19;117465;1185;21855;-55
2021/09/10 00:33:22;;;;;;;11.80;8.30;;;;;;;13.05;57.98;101006.39;117402;1182;24151;-63
2021/09/10 00:36:03;;;;;;;15.40;8.50;;;;;;;13.00;57.86;101008.04;117388;1186;23474;-55
2021/09/10 00:38:32;;;;;;;11.00;7.70;;;;;;;12.92;57.72;101004.77;117412;1182;23457;-55
2021/09/10 00:41:01;;;;;;;14.10;7.80;;;;;;;12.83;57.71;101002.23;117378;1188;21895;-55
2021/09/10 00:43:29;;;;;;;13.40;8.60;;;;;;;12.77;57.79;101006.89;117386;1183;22630;-55
2021/09/10 00:45:58;;;;;;;14.30;6.90;;;;;;;12.72;57.74;101000.95;117387;1185;23465;-63
2021/09/10 00:48:26;;;;;;;13.80;8.70;;;;;;;12.68;57.69;101001.89;117406;1179;24203;-55
2021/09/10 00:50:55;;;;;;;15.00;8.30;;;;;;;12.66;57.85;100999.61;117432;1185;23445;-55
2021/09/10 00:53:23;;;;;;;14.50;8.60;;;;;;;12.64;57.74;101001.05;117448;1186;21956;-63
2021/09/10 00:56:11;;;;;;;16.70;8.70;;;;;;;12.62;57.88;101002.64;117303;1186;22968;-64
2021/09/10 00:58:39;;;;;;;17.70;9.20;;;;;;;12.62;58.01;101002.82;117097;1187;21917;-55
2021/09/10 01:01:08;;;;;;;18.80;9.30;;;;;;;12.64;58.05;101000.52;117328;1186;21895;-64
2021/09/10 01:03:38;;;;;;;15.90;9.30;;;;;;;12.65;58.09;100993.11;117449;1185;22654;-55
2021/09/10 01:06:07;;;;;;;18.30;10.00;;;;;;;12.67;58.17;100992.20;117308;1183;23006;-55
2021/09/10 01:08:36;;;;;;;17.30;9.70;;;;;;;12.72;58.05;100991.27;117287;1184;23469;-55
2021/09/10 01:11:04;;;;;;;18.80;9.80;;;;;;;12.72;58.09;100987.05;117181;1186;23443;-57
2021/09/10 01:13:48;;;;;;;16.70;10.40;;;;;;;12.74;58.06;100985.80;117240;1186;23444;-65
2021/09/10 01:16:17;;;;;;;18.10;9.40;;;;;;;12.77;58.22;100983.11;117331;1184;23470;-64
2021/09/10 01:19:05;;;;;;;15.80;9.70;;;;;;;12.81;58.24;100986.95;117321;1186;21820;-65
2021/09/10 01:22:04;;;;;;;19.00;10.10;;;;;;;12.84;58.13;100986.20;117257;1187;22988;-64
2021/09/10 01:25:01;;;;;;;18.70;10.50;;;;;;;12.87;58.24;100983.87;117306;1179;23552;-64
2021/09/10 01:27:29;;;;;;;17.40;9.20;;;;;;;12.90;58.13;100979.06;117289;1185;22903;-64
2021/09/10 01:29:58;;;;;;;20.70;10.90;;;;;;;12.92;58.18;100977.83;117304;1186;23442;-64
2021/09/10 01:32:28;;;;;;;15.60;9.70;;;;;;;12.92;58.27;100975.52;117354;1185;23550;-63
2021/09/10 01:34:56;;;;;;;19.30;10.70;;;;;;;12.96;58.19;100974.27;117349;1185;23445;-55
2021/09/10 01:37:25;;;;;;;17.20;10.30;;;;;;;12.98;58.23;100980.73;117352;1186;21868;-56
2021/09/10 01:39:53;;;;;;;16.70;9.90;;;;;;;12.99;58.23;100978.63;117322;1186;23446;-65
2021/09/10 01:42:21;;;;;;;20.10;9.20;;;;;;;13.05;58.33;100984.70;117330;1185;21900;-65
2021/09/10 01:44:49;;;;;;;17.30;9.80;;;;;;;13.10;58.26;100983.94;117275;1186;21861;-64
2021/09/10 01:47:17;;;;;;;16.70;9.60;;;;;;;13.12;58.25;100984.09;117272;1182;21859;-55
2021/09/10 01:49:46;;;;;;;18.10;9.60;;;;;;;13.15;58.27;100988.28;117292;1186;23550;-65
2021/09/10 01:52:14;;;;;;;19.50;9.80;;;;;;;13.14;58.27;100983.54;117461;1184;23446;-65
2021/09/10 01:54:42;;;;;;;21.70;10.30;;;;;;;13.07;58.18;100987.50;117340;1186;21848;-55
2021/09/10 01:57:11;;;;;;;16.30;9.70;;;;;;;13.12;58.14;100986.91;117361;1186;23442;-64
2021/09/10 01:59:43;;;;;;;15.60;9.80;;;;;;;13.08;57.95;100979.73;117382;1184;23469;-64
2021/09/10 02:02:12;;;;;;;18.80;10.50;;;;;;;13.07;58.14;100979.02;117368;1183;21852;-64
2021/09/10 02:04:41;;;;;;;16.60;9.10;;;;;;;13.05;58.18;100978.70;117424;1183;22961;-64
2021/09/10 02:07:28;;;;;;;15.60;9.00;;;;;;;13.05;58.13;100975.90;117367;1184;23929;-63
2021/09/10 02:10:04;;;;;;;19.20;9.90;;;;;;;13.06;58.16;100969.55;117356;1185;23466;-55
2021/09/10 02:12:40;;;;;;;18.00;9.40;;;;;;;13.07;58.00;100969.70;117384;1182;23536;-55
2021/09/10 02:15:10;;;;;;;17.00;9.20;;;;;;;13.08;58.17;100968.82;117367;1185;24152;-55
2021/09/10 02:17:39;;;;;;;15.50;9.20;;;;;;;13.09;58.19;100968.45;117387;1183;22916;-54
2021/09/10 02:20:22;;;;;;;16.40;9.00;;;;;;;13.11;58.02;100963.84;117452;1185;23455;-63
2021/09/10 02:22:51;;;;;;;20.40;9.50;;;;;;;13.12;58.05;100967.52;117412;1184;23443;-65
2021/09/10 02:25:19;;;;;;;17.30;8.60;;;;;;;13.14;58.19;100966.28;117411;1185;23467;-64
2021/09/10 02:27:48;;;;;;;15.50;8.90;;;;;;;13.13;57.98;100966.98;117323;1186;23443;-64
2021/09/10 02:30:21;;;;;;;16.50;9.80;;;;;;;13.13;57.95;100969.27;117407;1182;23462;-54
2021/09/10 02:32:49;;;;;;;19.50;9.20;;;;;;;13.13;58.01;100975.27;117352;1182;21912;-64
2021/09/10 02:35:17;;;;;;;16.90;8.40;;;;;;;13.14;58.02;100980.19;117413;1182;23443;-53
2021/09/10 02:37:46;;;;;;;17.30;9.80;;;;;;;13.13;58.11;100984.79;117443;1185;23456;-64
2021/09/10 02:40:15;;;;;;;15.30;8.80;;;;;;;13.11;58.09;100985.86;117375;1182;21855;-65
2021/09/10 02:42:43;;;;;;;17.50;9.40;;;;;;;13.09;58.15;100990.11;117333;1184;21859;-64
2021/09/10 02:45:11;;;;;;;16.10;9.30;;;;;;;13.08;58.18;100990.83;117378;1185;21855;-54
2021/09/10 02:47:39;;;;;;;16.40;9.30;;;;;;;13.08;57.96;100987.83;117362;1186;22626;-54
2021/09/10 02:50:08;;;;;;;16.40;9.00;;;;;;;13.10;58.11;100990.80;117373;1185;21855;-64
2021/09/10 02:52:36;;;;;;;17.00;8.60;;;;;;;13.11;58.18;100991.32;117359;1185;22918;-65
2021/09/10 02:55:07;;;;;;;17.80;9.40;;;;;;;13.13;58.12;100990.06;117331;1185;21854;-64
2021/09/10 02:57:35;;;;;;;19.70;9.20;;;;;;;13.13;58.07;100991.47;117426;1185;21866;-54
2021/09/10 03:00:04;;;;;;;16.10;9.00;;;;;;;13.13;58.17;100989.19;117302;1185;23435;-64
2021/09/10 03:02:33;;;;;;;18.50;9.60;;;;;;;13.11;58.05;100986.57;117355;1186;21848;-65
2021/09/10 03:05:01;;;;;;;18.50;8.90;;;;;;;13.10;57.94;100986.41;117409;1185;22147;-54
2021/09/10 03:07:49;;;;;;;16.00;9.10;;;;;;;13.06;58.06;100985.93;117369;1185;23439;-64
2021/09/10 03:10:20;;;;;;;16.10;8.30;;;;;;;13.04;57.93;100986.13;117393;1183;23552;-64
2021/09/10 03:13:04;;;;;;;15.50;8.20;;;;;;;13.01;57.83;100989.52;117398;1185;23439;-62
2021/09/10 03:15:33;;;;;;;15.70;8.30;;;;;;;13.00;58.02;100991.46;117383;1186;23469;-55
2021/09/10 03:18:21;;;;;;;15.50;9.00;;;;;;;13.00;57.99;100996.40;117396;1186;21852;-54
2021/09/10 03:20:51;;;;;;;16.70;9.50;;;;;;;12.99;57.98;100995.55;117427;1188;23539;-54
2021/09/10 03:23:21;;;;;;;68.90;12.70;;;;;;;12.96;58.00;100999.98;117385;1183;23471;-54
2021/09/10 03:26:04;;;;;;;68.50;12.30;;;;;;;12.93;57.98;100997.19;117378;1186;23438;-63
2021/09/10 03:28:32;;;;;;;45.30;10.60;;;;;;;12.91;57.90;100997.22;117472;1185;23442;-64
2021/09/10 03:31:01;;;;;;;42.40;10.20;;;;;;;12.88;57.97;100994.08;117397;1185;23465;-54
2021/09/10 03:33:29;;;;;;;30.80;10.60;;;;;;;12.85;58.01;100988.48;117424;1185;23480;-63
2021/09/10 03:36:15;;;;;;;19.90;9.00;;;;;;;12.83;57.96;100984.61;117378;1180;23438;-63
2021/09/10 03:38:44;;;;;;;22.10;9.20;;;;;;;12.82;57.87;100983.40;117444;1186;23465;-54
2021/09/10 03:41:12;;;;;;;16.90;8.70;;;;;;;12.81;57.98;100987.29;117426;1185;21842;-61
2021/09/10 03:43:42;;;;;;;22.90;8.90;;;;;;;12.81;57.98;100990.29;117490;1183;21860;-54
2021/09/10 03:46:10;;;;;;;30.60;13.90;;;;;;;12.81;58.13;100990.63;117386;1185;21842;-62
2021/09/10 03:48:39;;;;;;;20.70;9.60;;;;;;;12.83;58.06;100992.73;117372;1185;24159;-54
2021/09/10 03:51:10;;;;;;;22.20;8.40;;;;;;;12.84;58.11;100991.65;117491;1182;23461;-64
2021/09/10 03:53:48;;;;;;;24.80;8.60;;;;;;;12.88;58.16;100992.33;117410;1186;24679;-63
2021/09/10 03:56:17;;;;;;;20.50;8.10;;;;;;;12.90;58.24;100993.86;117438;1185;21854;-55
2021/09/10 03:58:45;;;;;;;20.90;7.70;;;;;;;12.95;58.17;100994.35;117397;1184;21867;-55
2021/09/10 04:01:13;;;;;;;17.10;7.20;;;;;;;13.01;58.12;100999.91;117362;1185;22307;-54
2021/09/10 04:03:41;;;;;;;16.20;6.80;;;;;;;13.06;58.16;101001.06;117379;1184;23461;-54
2021/09/10 04:06:10;;;;;;;16.80;7.70;;;;;;;13.13;58.14;100999.75;118952;1184;22925;-55
2021/09/10 04:08:39;;;;;;;16.90;8.50;;;;;;;13.22;58.37;100999.29;119417;1185;21784;-65
2021/09/10 04:11:07;;;;;;;14.90;8.20;;;;;;;13.33;58.37;101001.08;117388;1182;23443;-63
2021/09/10 04:13:35;;;;;;;35.00;19.50;;;;;;;13.42;58.47;101001.16;117350;1185;22922;-58
2021/09/10 04:16:23;;;;;;;17.10;11.40;;;;;;;13.55;58.50;100997.98;117327;1187;21867;-54
2021/09/10 04:18:52;;;;;;;14.60;8.90;;;;;;;13.64;58.52;100994.48;117316;1190;21905;-54
2021/09/10 04:21:24;;;;;;;17.30;8.40;;;;;;;13.73;58.41;100991.70;117340;1185;23467;-64
2021/09/10 04:24:17;;;;;;;14.20;7.30;;;;;;;13.80;58.46;100994.06;117407;1185;21851;-54
2021/09/10 04:26:45;;;;;;;12.60;6.80;;;;;;;13.87;58.32;100992.91;117411;1182;24142;-55
2021/09/10 04:29:13;;;;;;;23.10;7.40;;;;;;;13.93;58.36;100992.98;117446;1182;23901;-64
2021/09/10 04:31:41;;;;;;;18.60;7.00;;;;;;;13.98;58.35;100987.78;117367;1184;21855;-55
2021/09/10 04:34:10;;;;;;;14.90;7.10;;;;;;;14.06;58.37;100986.61;117419;1185;23439;-64
2021/09/10 04:36:59;;;;;;;12.50;6.10;;;;;;;14.11;58.34;100986.86;117330;1186;22068;-63
2021/09/10 04:39:27;;;;;;;13.50;5.90;;;;;;;14.18;58.43;100982.50;117304;1182;23442;-54
2021/09/10 04:41:55;;;;;;;13.90;6.90;;;;;;;14.22;58.46;100979.61;117331;1185;21923;-63
2021/09/10 04:44:24;;;;;;;11.20;7.30;;;;;;;14.27;58.55;100978.11;117402;1185;21859;-64
2021/09/10 04:47:04;;;;;;;17.20;7.70;;;;;;;14.35;58.56;100976.73;117328;1182;21823;-54
2021/09/10 04:49:34;;;;;;;13.30;6.00;;;;;;;14.43;58.60;100974.64;117370;1182;23504;-64
2021/09/10 04:52:03;;;;;;;18.10;6.90;;;;;;;14.52;58.51;100972.70;117458;1185;23442;-56
2021/09/10 04:54:35;;;;;;;11.80;6.10;;;;;;;14.61;58.55;100972.70;117385;1179;23463;-64
2021/09/10 04:57:04;;;;;;;9.90;5.80;;;;;;;14.70;58.62;100968.84;117445;1183;23441;-64
2021/09/10 04:59:32;;;;;;;13.40;6.10;;;;;;;14.79;58.56;100968.15;117439;1185;23446;-64
2021/09/10 05:02:01;;;;;;;10.50;6.00;;;;;;;14.89;58.59;100969.89;117358;1182;24203;-55
2021/09/10 05:04:30;;;;;;;11.40;5.80;;;;;;;14.99;58.75;100967.56;117317;1182;21863;-64
2021/09/10 05:06:58;;;;;;;10.60;5.90;;;;;;;15.11;58.74;100965.54;117334;1184;22908;-64
2021/09/10 05:09:29;;;;;;;10.20;5.50;;;;;;;15.25;58.87;100964.34;117347;1185;21844;-54
2021/09/10 05:12:17;;;;;;;12.20;6.20;;;;;;;15.41;59.09;100962.39;117338;1189;21862;-64
2021/09/10 05:14:46;;;;;;;10.70;5.80;;;;;;;15.58;59.17;100960.59;117385;1183;23444;-54
2021/09/10 05:17:14;;;;;;;11.90;6.10;;;;;;;15.78;59.29;100957.98;117383;1186;23470;-54
2021/09/10 05:20:00;;;;;;;10.90;6.20;;;;;;;16.07;59.36;100954.64;117346;1185;22767;-65
2021/09/10 05:22:29;;;;;;;17.60;5.60;;;;;;;16.40;59.31;100952.34;117380;1185;23715;-65
2021/09/10 05:24:58;;;;;;;17.60;5.50;;;;;;;16.59;59.53;100948.29;117436;1180;21858;-66
2021/09/10 05:27:26;;;;;;;15.90;7.40;;;;;;;16.85;59.63;100945.93;117319;1185;21870;-55
2021/09/10 05:29:54;;;;;;;12.80;5.80;;;;;;;17.08;59.51;100942.80;117384;1185;24141;-53
2021/09/10 05:32:25;;;;;;;13.60;5.80;;;;;;;17.33;59.54;100938.69;117335;1185;22622;-64
2021/09/10 05:34:53;;;;;;;10.60;5.10;;;;;;;17.60;59.66;100939.04;117264;1185;21868;-55
2021/09/10 05:37:36;;;;;;;10.00;5.50;;;;;;;17.95;59.39;100930.79;117312;1182;24208;-64
2021/09/10 05:40:05;;;;;;;10.50;5.90;;;;;;;18.15;59.51;100929.79;117350;1185;21855;-53
2021/09/10 05:42:33;;;;;;;16.00;5.90;;;;;;;18.36;59.53;100930.98;117273;1186;22971;-65
2021/09/10 05:45:01;;;;;;;45.40;27.60;;;;;;;18.60;59.52;100929.05;117379;1185;24154;-52
2021/09/10 05:47:30;;;;;;;39.20;25.40;;;;;;;18.87;59.78;100927.33;117335;1184;23465;-53
2021/09/10 05:49:58;;;;;;;22.80;13.40;;;;;;;19.18;59.96;100924.58;117339;1186;21857;-52
2021/09/10 05:52:46;;;;;;;13.60;9.00;;;;;;;19.55;60.01;100924.15;117349;1185;22151;-54
2021/09/10 05:55:14;;;;;;;12.50;7.60;;;;;;;19.92;60.12;100926.36;117351;1182;21857;-66
2021/09/10 05:57:43;;;;;;;10.80;6.80;;;;;;;20.30;60.17;100929.93;117349;1185;23638;-53
2021/09/10 06:00:14;;;;;;;11.50;5.90;;;;;;;20.67;60.26;100931.70;117371;1185;23911;-65
2021/09/10 06:02:42;;;;;;;9.00;4.90;;;;;;;21.04;60.42;100931.92;117446;1183;23573;-53
2021/09/10 06:05:10;;;;;;;14.20;5.90;;;;;;;21.43;60.43;100931.86;117438;1186;24148;-65
2021/09/10 06:07:38;;;;;;;13.40;5.20;;;;;;;21.82;60.51;100927.13;117440;1185;21918;-54
2021/09/10 06:10:26;;;;;;;10.40;4.50;;;;;;;22.26;60.57;100928.62;117351;1189;23337;-65
2021/09/10 06:13:10;;;;;;;12.10;5.80;;;;;;;22.65;60.28;100927.27;117316;1183;23465;-53
2021/09/10 06:15:39;;;;;;;9.30;5.30;;;;;;;22.94;60.16;100928.94;117408;1186;21857;-53
2021/09/10 06:18:08;;;;;;;8.40;4.60;;;;;;;23.24;60.18;100924.08;117464;1184;22333;-53
2021/09/10 06:20:37;;;;;;;9.50;5.80;;;;;;;23.48;60.22;100927.02;117361;1185;23902;-53
2021/09/10 06:23:05;;;;;;;13.90;5.90;;;;;;;23.71;60.29;100928.00;117330;1185;22648;-54
2021/09/10 06:25:34;;;;;;;15.10;6.90;;;;;;;23.92;60.05;100932.69;117253;1182;22340;-65
2021/09/10 06:28:03;;;;;;;17.30;7.10;;;;;;;24.16;60.10;100932.72;117312;1185;21859;-65
2021/09/10 06:30:31;;;;;;;13.70;6.80;;;;;;;24.42;60.08;100933.85;117357;1185;21848;-53
2021/09/10 06:32:59;;;;;;;12.00;5.90;;;;;;;24.63;60.14;100934.30;117381;1184;21857;-53
2021/09/10 06:35:27;;;;;;;9.90;5.30;;;;;;;24.85;60.10;100934.63;117379;1183;21858;-64
2021/09/10 06:37:55;;;;;;;9.00;4.90;;;;;;;25.05;60.00;100935.48;117381;1185;24155;-65
2021/09/10 06:40:24;;;;;;;13.40;4.70;;;;;;;25.23;59.92;100937.02;117316;1184;23548;-54
2021/09/10 06:42:53;;;;;;;11.30;4.50;;;;;;;25.41;60.05;100936.02;117305;1189;23557;-54
2021/09/10 06:45:23;;;;;;;7.40;4.90;;;;;;;25.67;60.23;100930.42;117372;1185;23465;-54
2021/09/10 06:47:51;;;;;;;10.20;4.40;;;;;;;25.93;60.20;100926.48;117457;1185;21847;-66
2021/09/10 06:50:20;;;;;;;8.00;4.50;;;;;;;26.14;60.11;100923.24;117400;1184;23452;-54
2021/09/10 06:52:48;;;;;;;9.20;5.20;;;;;;;26.36;60.02;100922.11;117397;1185;23461;-66
2021/09/10 06:55:16;;;;;;;8.70;4.90;;;;;;;26.59;60.28;100921.92;117416;1185;24152;-67
2021/09/10 06:57:44;;;;;;;12.90;4.20;;;;;;;26.89;60.40;100920.55;117346;1179;23440;-53
2021/09/10 07:00:15;;;;;;;8.90;5.10;;;;;;;27.21;60.40;100917.65;117416;1183;24152;-54
2021/09/10 07:02:43;;;;;;;11.10;4.40;;;;;;;27.55;60.46;100916.45;117377;1182;23557;-54
2021/09/10 07:05:12;;;;;;;6.80;4.80;;;;;;;27.88;60.57;100919.31;117365;1186;23544;-53
2021/09/10 07:07:40;;;;;;;9.40;4.30;;;;;;;28.12;60.24;100918.40;117461;1183;23286;-67
2021/09/10 07:10:09;;;;;;;7.50;4.40;;;;;;;28.30;60.08;100917.42;117232;1186;21853;-65
2021/09/10 07:12:37;;;;;;;9.40;4.10;;;;;;;28.51;60.12;100917.57;117324;1186;21866;-54
2021/09/10 07:15:07;;;;;;;6.20;4.20;;;;;;;28.69;59.86;100916.46;117315;1185;23544;-66
2021/09/10 07:17:36;;;;;;;7.10;4.50;;;;;;;28.92;60.13;100916.46;117351;1185;21894;-64
2021/09/10 07:20:06;;;;;;;6.40;4.20;;;;;;;29.21;60.51;100915.73;117318;1184;23442;-54
2021/09/10 07:22:35;;;;;;;10.30;4.40;;;;;;;29.50;60.33;100914.08;117405;1185;22895;-66
2021/09/10 07:25:04;;;;;;;7.10;4.00;;;;;;;29.71;60.10;100912.91;117326;1185;23466;-54
2021/09/10 07:27:32;;;;;;;13.00;4.00;;;;;;;29.89;60.29;100913.02;117471;1183;21896;-54
2021/09/10 07:30:01;;;;;;;7.10;4.20;;;;;;;29.98;60.07;100916.24;117417;1185;21951;-54
2021/09/10 07:32:29;;;;;;;7.60;4.40;;;;;;;30.07;60.19;100914.56;117395;1183;23465;-70
2021/09/10 07:34:58;;;;;;;7.40;4.00;;;;;;;30.24;60.39;100912.15;117340;1185;23452;-66
2021/09/10 07:37:27;;;;;;;8.20;3.80;;;;;;;30.46;60.37;100912.23;117341;1186;21898;-54
2021/09/10 07:39:55;;;;;;;6.60;4.10;;;;;;;30.71;60.37;100909.75;117397;1183;22988;-53
2021/09/10 07:42:24;;;;;;;8.40;4.20;;;;;;;30.89;60.22;100906.48;117363;1185;22021;-68
2021/09/10 07:44:52;;;;;;;9.40;4.60;;;;;;;31.05;60.21;100903.54;117340;1185;21849;-71
2021/09/10 07:47:20;;;;;;;8.80;4.40;;;;;;;31.14;60.04;100901.14;117368;1184;21858;-55
2021/09/10 07:49:49;;;;;;;9.10;4.80;;;;;;;31.29;60.01;100896.70;117387;1185;23581;-68
2021/09/10 07:52:17;;;;;;;12.20;4.80;;;;;;;31.50;60.24;100895.65;117429;1186;23463;-55
2021/09/10 07:54:46;;;;;;;9.30;5.50;;;;;;;31.74;60.25;100897.14;117397;1186;23469;-69
2021/09/10 07:57:24;;;;;;;10.20;5.80;;;;;;;31.90;60.01;100894.31;117363;1185;23482;-70
2021/09/10 07:59:58;;;;;;;7.40;5.10;;;;;;;32.03;60.06;100885.98;117411;1186;24152;-66
2021/09/10 08:02:26;;;;;;;9.90;5.60;;;;;;;32.18;60.01;100885.11;117379;1185;21845;-55
2021/09/10 08:04:55;;;;;;;7.70;5.50;;;;;;;32.33;59.96;100883.41;117423;1184;23211;-67
2021/09/10 08:07:24;;;;;;;9.40;5.50;;;;;;;32.33;59.87;100883.16;117343;1183;23156;-67
2021/09/10 08:10:01;;;;;;;8.10;5.30;;;;;;;32.41;59.89;100883.13;117349;1184;23442;-54
2021/09/10 08:12:29;;;;;;;10.40;5.20;;;;;;;32.55;59.90;100879.63;117405;1186;21913;-71
2021/09/10 08:14:58;;;;;;;8.60;5.30;;;;;;;32.71;59.94;100878.19;117429;1185;23901;-55
2021/09/10 08:17:27;;;;;;;7.10;5.30;;;;;;;32.84;59.90;100875.57;117371;1182;21855;-55
2021/09/10 08:19:57;;;;;;;8.10;5.40;;;;;;;32.94;59.97;100875.65;117476;1182;22915;-63
2021/09/10 08:22:25;;;;;;;9.40;5.50;;;;;;;33.07;59.97;100870.71;117395;1182;21864;-67
2021/09/10 08:24:56;;;;;;;11.30;6.40;;;;;;;33.17;59.95;100866.77;117390;1183;22628;-55
2021/09/10 08:27:26;;;;;;;10.30;6.10;;;;;;;33.26;59.99;100867.72;117344;1182;23634;-55
2021/09/10 08:29:58;;;;;;;8.80;5.90;;;;;;;33.36;59.81;100866.90;117253;1185;21878;-71
2021/09/10 08:32:26;;;;;;;10.80;5.90;;;;;;;33.48;59.93;100862.29;117302;1185;22623;-73
2021/09/10 08:34:55;;;;;;;8.90;6.10;;;;;;;33.59;59.83;100860.80;117374;1185;24172;-73
2021/09/10 08:37:23;;;;;;;9.20;6.30;;;;;;;33.68;59.97;100856.91;117464;1183;22810;-70
2021/09/10 08:39:54;;;;;;;;;;;;;;;33.79;59.75;100854.71;117353;1183;22709;-55
2021/09/10 08:42:23;;;;;;;8.40;6.00;;;;;;;33.88;59.72;100852.35;117347;1179;21857;-69
2021/09/10 08:44:51;;;;;;;10.30;6.30;;;;;;;33.99;59.99;100849.36;117325;1185;21998;-55
2021/09/10 08:47:19;;;;;;;9.20;6.60;;;;;;;34.14;60.03;100846.73;117291;1186;21857;-55
2021/09/10 08:49:47;;;;;;;9.10;6.40;;;;;;;34.24;60.15;100840.80;117199;1184;21848;-55
2021/09/10 08:52:16;;;;;;;12.20;6.50;;;;;;;34.37;60.09;100839.39;117267;1183;23586;-55
2021/09/10 08:54:45;;;;;;;10.30;6.20;;;;;;;34.49;59.64;100837.09;117381;1182;21968;-54
2021/09/10 08:57:14;;;;;;;10.20;6.00;;;;;;;34.52;59.81;100833.66;117380;1182;22840;-55
2021/09/10 08:59:44;;;;;;;12.40;6.40;;;;;;;34.62;59.90;100832.74;117095;1182;23638;-54
2021/09/10 09:02:12;;;;;;;11.10;6.70;;;;;;;34.72;59.80;100831.17;117206;1181;23551;-54
2021/09/10 09:04:41;;;;;;;13.30;6.50;;;;;;;34.83;59.68;100827.98;117166;1186;23841;-54
2021/09/10 09:07:09;;;;;;;13.30;7.20;;;;;;;34.96;59.53;100826.23;117389;1182;21871;-67
2021/09/10 09:09:45;;;;;;;9.00;6.60;;;;;;;35.02;59.38;100827.90;117290;1182;22370;-55
2021/09/10 09:12:16;;;;;;;14.50;6.90;;;;;;;35.06;59.41;100827.33;118863;1184;21855;-54
2021/09/10 09:15:13;;;;;;;9.30;7.00;;;;;;;35.15;59.45;100817.58;117364;1185;23459;-68
2021/09/10 09:17:41;;;;;;;10.70;7.10;;;;;;;35.26;59.78;100820.05;117232;1186;21867;-66
2021/09/10 09:20:24;;;;;;;11.10;7.10;;;;;;;35.37;59.91;100821.86;117352;1186;21848;-67
2021/09/10 09:22:55;;;;;;;10.50;6.90;;;;;;;35.40;60.02;100821.55;117334;1186;23817;-68
2021/09/10 09:25:28;;;;;;;12.40;6.60;;;;;;;35.48;60.19;100817.46;117365;1183;21861;-55
2021/09/10 09:27:56;;;;;;;9.10;5.80;;;;;;;35.61;60.06;100819.81;117426;1182;21888;-68
2021/09/10 09:30:35;;;;;;;11.60;5.90;;;;;;;35.78;59.64;100811.66;117261;1185;21871;-55
2021/09/10 09:33:04;;;;;;;8.80;5.80;;;;;;;35.79;59.86;100811.05;117350;1183;23551;-66
2021/09/10 09:35:32;;;;;;;9.10;5.20;;;;;;;35.89;59.59;100806.98;117343;1185;21857;-55
2021/09/10 09:38:10;;;;;;;8.70;5.10;;;;;;;36.00;59.66;100810.46;117336;1183;23464;-67
2021/09/10 09:40:39;;;;;;;8.30;5.50;;;;;;;36.04;59.88;100811.36;117322;1183;22921;-68
2021/09/10 09:43:15;;;;;;;6.00;5.00;;;;;;;36.15;59.64;100812.35;117437;1185;23468;-55
2021/09/10 09:45:45;;;;;;;9.00;5.00;;;;;;;36.19;59.45;100811.52;117394;1186;21981;-55
2021/09/10 09:48:13;;;;;;;8.00;5.60;;;;;;;36.25;59.53;100807.69;117275;1183;23464;-64
2021/09/10 09:50:42;;;;;;;13.90;5.40;;;;;;;36.22;59.53;100811.66;117350;1185;23266;-55
2021/09/10 09:53:12;;;;;;;12.20;5.50;;;;;;;36.34;59.59;100809.18;117394;1185;21863;-54
2021/09/10 09:55:42;;;;;;;10.60;5.40;;;;;;;36.49;59.54;100810.27;117373;1186;21926;-55
2021/09/10 09:58:10;;;;;;;9.20;4.90;;;;;;;36.52;59.49;100805.16;117393;1183;23653;-55
2021/09/10 10:00:39;;;;;;;7.90;4.80;;;;;;;36.48;59.61;100801.74;117221;1183;22630;-56
2021/09/10 10:03:08;;;;;;;12.50;5.00;;;;;;;36.58;59.60;100803.92;117280;1185;23677;-56
2021/09/10 10:06:16;;;;;;;10.40;4.80;;;;;;;36.70;59.60;100800.92;117304;1186;21853;-55
2021/09/10 10:08:58;;;;;;;15.50;6.20;;;;;;;36.87;59.29;100801.85;116906;1186;21860;-61
2021/09/10 10:11:51;;;;;;;11.90;5.00;;;;;;;36.97;59.23;100800.52;116825;1186;26753;-54
2021/09/10 10:14:37;;;;;;;7.60;5.10;;;;;;;36.93;59.54;100796.46;117274;1186;23538;-54
2021/09/10 10:17:42;;;;;;;9.60;5.10;;;;;;;36.90;59.43;100790.84;117386;1183;23444;-68
2021/09/10 10:20:14;;;;;;;9.40;4.90;;;;;;;36.95;59.35;100786.77;116858;1188;22929;-69
2021/09/10 10:22:42;;;;;;;7.70;5.00;;;;;;;37.06;59.31;100788.30;117311;1186;21848;-68
2021/09/10 10:25:11;;;;;;;7.80;4.60;;;;;;;37.14;59.07;100782.70;117383;1182;22622;-55
2021/09/10 10:27:43;;;;;;;6.30;4.80;;;;;;;37.17;58.89;100778.89;117388;1185;21901;-69
2021/09/10 10:30:18;;;;;;;7.50;5.10;;;;;;;37.26;58.79;100775.93;117391;1184;23558;-55
2021/09/10 10:32:49;;;;;;;7.70;5.20;;;;;;;37.35;58.80;100781.55;117333;1176;21871;-69
2021/09/10 10:35:20;;;;;;;6.10;4.70;;;;;;;37.40;58.71;100776.70;117388;1185;23547;-68
2021/09/10 10:37:51;;;;;;;10.40;5.70;;;;;;;37.42;58.62;100771.74;117419;1182;23477;-55
2021/09/10 10:40:28;;;;;;;8.40;4.80;;;;;;;37.38;58.45;100764.30;117367;1184;21870;-68
2021/09/10 10:43:12;;;;;;;5.90;4.80;;;;;;;37.31;58.49;100763.51;117237;1183;22843;-55
2021/09/10 10:45:56;;;;;;;7.40;4.50;;;;;;;37.37;58.83;100758.54;117379;1185;22016;-55
2021/09/10 10:48:34;;;;;;;6.90;4.50;;;;;;;37.54;58.97;100758.94;117396;1182;22330;-55
2021/09/10 10:51:13;;;;;;;7.10;5.00;;;;;;;37.67;58.78;100755.31;117364;1185;21858;-55
2021/09/10 10:53:48;;;;;;;9.80;4.60;;;;;;;37.78;58.71;100752.13;117285;1186;24158;-55
2021/09/10 10:56:29;;;;;;;9.00;5.60;;;;;;;37.86;58.76;100747.32;117440;1183;22518;-69
2021/09/10 10:59:14;;;;;;;8.10;5.20;;;;;;;37.90;58.62;100745.90;117390;1186;23455;-70
2021/09/10 11:02:14;;;;;;;8.40;4.80;;;;;;;37.93;58.59;100743.69;117394;1184;21826;-60
2021/09/10 11:04:44;;;;;;;9.10;5.00;;;;;;;37.93;58.43;100740.70;117307;1186;23599;-66
2021/09/10 11:07:32;;;;;;;6.60;4.40;;;;;;;37.91;58.43;100738.84;117292;1185;21887;-68
2021/09/10 11:10:11;;;;;;;7.30;4.60;;;;;;;37.90;58.42;100733.86;117199;1189;23574;-66
2021/09/10 11:12:58;;;;;;;10.20;5.10;;;;;;;37.88;58.34;100729.66;117357;1182;21870;-67
2021/09/10 11:15:36;;;;;;;9.20;4.80;;;;;;;37.95;58.49;100728.70;117248;1185;21993;-64
2021/09/10 11:18:08;;;;;;;9.10;5.00;;;;;;;37.99;58.56;100724.02;117151;1183;22615;-56
2021/09/10 11:20:55;;;;;;;8.20;5.00;;;;;;;38.00;58.48;100722.55;118270;1185;21857;-54
2021/09/10 11:23:37;;;;;;;7.30;4.70;;;;;;;38.01;58.41;100720.76;117254;1183;23560;-67
2021/09/10 11:26:07;;;;;;;8.40;5.10;;;;;;;38.04;58.50;100720.64;117401;1185;21881;-55
2021/09/10 11:28:36;;;;;;;8.30;4.90;;;;;;;38.05;58.24;100718.90;117415;1185;21849;-55
2021/09/10 11:31:05;;;;;;;8.10;4.70;;;;;;;38.01;58.09;100714.96;117386;1183;22983;-53
2021/09/10 11:33:45;;;;;;;9.10;5.00;;;;;;;37.96;58.06;100709.84;117294;1181;21853;-55